sensor_id;sensor_type;location;lat;lon;timestamp;pressure;altitude;pressure_sealevel;temperature;humidity
56825;BME280;42705;50.326;18.772;2023-05-02T00:01:53;98387.60;;;13.44;39.68
56825;BME280;42705;50.326;18.772;2023-05-02T00:07:15;98386.13;;;13.39;40.00
56825;BME280;42705;50.326;18.772;2023-05-02T00:12:37;98381.20;;;13.36;40.16
56825;BME280;42705;50.326;18.772;2023-05-02T00:17:59;98376.70;;;13.32;40.53
56825;BME280;42705;50.326;18.772;2023-05-02T00:23:21;98373.95;;;13.31;40.76
56825;BME280;42705;50.326;18.772;2023-05-02T00:28:43;98371.06;;;13.30;40.95
56825;BME280;42705;50.326;18.772;2023-05-02T00:34:04;98370.17;;;13.30;41.22
56825;BME280;42705;50.326;18.772;2023-05-02T00:39:26;98364.81;;;13.30;41.42
56825;BME280;42705;50.326;18.772;2023-05-02T00:44:48;98363.50;;;13.29;41.60
56825;BME280;42705;50.326;18.772;2023-05-02T00:50:10;98362.70;;;13.26;41.76
56825;BME280;42705;50.326;18.772;2023-05-02T00:55:32;98361.62;;;13.23;42.04
56825;BME280;42705;50.326;18.772;2023-05-02T01:06:38;98359.65;;;13.20;42.55
56825;BME280;42705;50.326;18.772;2023-05-02T01:12:07;98358.02;;;13.17;42.95
56825;BME280;42705;50.326;18.772;2023-05-02T01:17:31;98357.90;;;13.14;43.31
56825;BME280;42705;50.326;18.772;2023-05-02T01:22:55;98367.62;;;13.07;43.51
56825;BME280;42705;50.326;18.772;2023-05-02T01:33:41;98364.90;;;13.03;44.33
56825;BME280;42705;50.326;18.772;2023-05-02T01:39:05;98361.72;;;13.05;44.48
56825;BME280;42705;50.326;18.772;2023-05-02T01:44:28;98358.25;;;13.07;44.81
56825;BME280;42705;50.326;18.772;2023-05-02T01:49:51;98353.08;;;13.11;44.98
56825;BME280;42705;50.326;18.772;2023-05-02T01:55:13;98350.88;;;13.13;44.83
56825;BME280;42705;50.326;18.772;2023-05-02T02:00:36;98350.82;;;13.14;44.81
56825;BME280;42705;50.326;18.772;2023-05-02T02:06:00;98352.65;;;13.13;45.13
56825;BME280;42705;50.326;18.772;2023-05-02T02:11:25;98354.60;;;13.13;45.20
56825;BME280;42705;50.326;18.772;2023-05-02T02:16:48;98350.91;;;13.11;45.23
56825;BME280;42705;50.326;18.772;2023-05-02T02:22:11;98348.80;;;13.10;45.30
56825;BME280;42705;50.326;18.772;2023-05-02T02:27:35;98354.83;;;13.06;45.04
56825;BME280;42705;50.326;18.772;2023-05-02T02:32:56;98353.19;;;12.99;45.24
56825;BME280;42705;50.326;18.772;2023-05-02T02:43:59;98350.13;;;12.83;44.98
56825;BME280;42705;50.326;18.772;2023-05-02T02:55:03;98352.32;;;12.70;45.34
56825;BME280;42705;50.326;18.772;2023-05-02T03:00:28;98356.23;;;12.66;45.42
56825;BME280;42705;50.326;18.772;2023-05-02T03:05:50;98357.09;;;12.64;45.37
56825;BME280;42705;50.326;18.772;2023-05-02T03:11:11;98354.72;;;12.62;45.42
56825;BME280;42705;50.326;18.772;2023-05-02T03:21:55;98352.23;;;12.55;45.17
56825;BME280;42705;50.326;18.772;2023-05-02T03:27:17;98359.66;;;12.51;45.19
56825;BME280;42705;50.326;18.772;2023-05-02T03:32:39;98363.17;;;12.49;45.03
56825;BME280;42705;50.326;18.772;2023-05-02T03:38:01;98360.10;;;12.44;45.18
56825;BME280;42705;50.326;18.772;2023-05-02T03:43:23;98358.22;;;12.44;44.89
56825;BME280;42705;50.326;18.772;2023-05-02T03:48:45;98365.90;;;12.42;44.65
56825;BME280;42705;50.326;18.772;2023-05-02T03:54:07;98365.53;;;12.41;44.59
56825;BME280;42705;50.326;18.772;2023-05-02T03:59:32;98372.71;;;12.41;44.66
56825;BME280;42705;50.326;18.772;2023-05-02T04:04:56;98375.77;;;12.42;44.58
56825;BME280;42705;50.326;18.772;2023-05-02T04:10:19;98378.84;;;12.44;44.45
56825;BME280;42705;50.326;18.772;2023-05-02T04:15:50;98389.89;;;12.50;44.29
56825;BME280;42705;50.326;18.772;2023-05-02T04:21:16;98394.08;;;12.55;44.25
56825;BME280;42705;50.326;18.772;2023-05-02T04:26:39;98397.94;;;12.60;44.09
56825;BME280;42705;50.326;18.772;2023-05-02T04:32:04;98403.13;;;12.61;44.11
56825;BME280;42705;50.326;18.772;2023-05-02T04:37:28;98409.32;;;12.59;44.22
56825;BME280;42705;50.326;18.772;2023-05-02T04:42:50;98418.95;;;12.61;44.03
56825;BME280;42705;50.326;18.772;2023-05-02T04:48:15;98417.55;;;12.62;44.06
56825;BME280;42705;50.326;18.772;2023-05-02T04:53:37;98418.00;;;12.60;44.08
56825;BME280;42705;50.326;18.772;2023-05-02T04:58:59;98418.94;;;12.57;44.27
56825;BME280;42705;50.326;18.772;2023-05-02T05:04:23;98422.33;;;12.56;44.55
56825;BME280;42705;50.326;18.772;2023-05-02T05:09:45;98415.77;;;12.62;44.57
56825;BME280;42705;50.326;18.772;2023-05-02T05:15:07;98417.77;;;12.72;44.80
56825;BME280;42705;50.326;18.772;2023-05-02T05:20:29;98424.34;;;12.80;44.47
56825;BME280;42705;50.326;18.772;2023-05-02T05:25:53;98427.16;;;12.89;44.49
56825;BME280;42705;50.326;18.772;2023-05-02T05:31:15;98428.60;;;12.99;44.32
56825;BME280;42705;50.326;18.772;2023-05-02T05:36:40;98432.89;;;13.09;44.24
56825;BME280;42705;50.326;18.772;2023-05-02T05:42:02;98435.52;;;13.21;44.23
56825;BME280;42705;50.326;18.772;2023-05-02T05:47:26;98445.02;;;13.34;44.32
56825;BME280;42705;50.326;18.772;2023-05-02T05:52:48;98450.69;;;13.46;44.25
56825;BME280;42705;50.326;18.772;2023-05-02T05:58:10;98459.10;;;13.58;44.44
56825;BME280;42705;50.326;18.772;2023-05-02T06:03:33;98462.38;;;13.74;44.65
56825;BME280;42705;50.326;18.772;2023-05-02T06:08:55;98470.30;;;13.98;44.63
56825;BME280;42705;50.326;18.772;2023-05-02T06:14:17;98472.38;;;14.20;44.59
56825;BME280;42705;50.326;18.772;2023-05-02T06:19:42;98481.02;;;14.46;44.57
56825;BME280;42705;50.326;18.772;2023-05-02T06:25:04;98484.03;;;14.71;44.48
56825;BME280;42705;50.326;18.772;2023-05-02T06:30:26;98491.08;;;14.97;44.35
56825;BME280;42705;50.326;18.772;2023-05-02T06:35:51;98497.46;;;15.21;44.15
56825;BME280;42705;50.326;18.772;2023-05-02T06:41:16;98501.54;;;15.37;43.57
56825;BME280;42705;50.326;18.772;2023-05-02T06:46:38;98502.29;;;15.51;43.25
56825;BME280;42705;50.326;18.772;2023-05-02T06:51:59;98510.30;;;15.65;42.92
56825;BME280;42705;50.326;18.772;2023-05-02T06:57:21;98506.13;;;15.77;43.20
56825;BME280;42705;50.326;18.772;2023-05-02T07:02:44;98514.26;;;15.90;43.31
56825;BME280;42705;50.326;18.772;2023-05-02T07:08:06;98516.78;;;15.96;43.30
56825;BME280;42705;50.326;18.772;2023-05-02T07:13:28;98518.18;;;16.03;43.35
56825;BME280;42705;50.326;18.772;2023-05-02T07:18:49;98521.38;;;16.13;43.35
56825;BME280;42705;50.326;18.772;2023-05-02T07:24:11;98527.81;;;16.23;43.26
56825;BME280;42705;50.326;18.772;2023-05-02T07:29:33;98535.17;;;16.29;42.83
56825;BME280;42705;50.326;18.772;2023-05-02T07:34:54;98536.91;;;16.42;42.70
56825;BME280;42705;50.326;18.772;2023-05-02T07:40:19;98546.49;;;16.53;42.26
56825;BME280;42705;50.326;18.772;2023-05-02T07:45:41;98550.08;;;16.60;42.43
56825;BME280;42705;50.326;18.772;2023-05-02T07:51:06;98555.38;;;16.70;42.19
56825;BME280;42705;50.326;18.772;2023-05-02T07:56:28;98558.67;;;16.77;42.10
56825;BME280;42705;50.326;18.772;2023-05-02T08:01:50;98556.33;;;16.85;42.10
56825;BME280;42705;50.326;18.772;2023-05-02T08:07:12;98569.67;;;16.90;42.05
56825;BME280;42705;50.326;18.772;2023-05-02T08:12:37;98560.81;;;16.95;42.15
56825;BME280;42705;50.326;18.772;2023-05-02T08:18:00;98569.33;;;17.04;42.28
56825;BME280;42705;50.326;18.772;2023-05-02T08:23:22;98564.69;;;17.05;42.46
56825;BME280;42705;50.326;18.772;2023-05-02T08:28:44;98566.07;;;17.07;42.81
56825;BME280;42705;50.326;18.772;2023-05-02T08:34:06;98565.27;;;17.24;43.29
56825;BME280;42705;50.326;18.772;2023-05-02T08:39:31;98573.85;;;17.43;43.26
56825;BME280;42705;50.326;18.772;2023-05-02T08:44:53;98575.59;;;17.57;43.25
56825;BME280;42705;50.326;18.772;2023-05-02T08:50:16;98575.96;;;17.69;43.27
56825;BME280;42705;50.326;18.772;2023-05-02T08:55:40;98573.30;;;17.87;43.42
56825;BME280;42705;50.326;18.772;2023-05-02T09:01:09;98569.27;;;18.00;43.21
56825;BME280;42705;50.326;18.772;2023-05-02T09:06:34;98570.65;;;18.18;43.21
56825;BME280;42705;50.326;18.772;2023-05-02T09:11:57;98573.25;;;18.39;43.11
56825;BME280;42705;50.326;18.772;2023-05-02T09:17:19;98579.95;;;18.48;43.05
56825;BME280;42705;50.326;18.772;2023-05-02T09:22:49;98584.77;;;18.58;42.91
56825;BME280;42705;50.326;18.772;2023-05-02T09:28:11;98588.52;;;18.69;42.59
56825;BME280;42705;50.326;18.772;2023-05-02T09:33:33;98596.81;;;18.94;42.49
56825;BME280;42705;50.326;18.772;2023-05-02T09:38:56;98598.67;;;19.21;42.61
56825;BME280;42705;50.326;18.772;2023-05-02T09:44:35;98607.31;;;19.41;42.27
56825;BME280;42705;50.326;18.772;2023-05-02T09:49:58;98610.15;;;19.49;41.97
56825;BME280;42705;50.326;18.772;2023-05-02T09:55:20;98613.79;;;19.53;41.98
56825;BME280;42705;50.326;18.772;2023-05-02T10:00:43;98615.42;;;19.62;42.23
56825;BME280;42705;50.326;18.772;2023-05-02T10:06:05;98620.16;;;19.74;41.95
56825;BME280;42705;50.326;18.772;2023-05-02T10:11:29;98625.51;;;19.97;41.44
56825;BME280;42705;50.326;18.772;2023-05-02T10:16:59;98629.70;;;20.00;41.17
56825;BME280;42705;50.326;18.772;2023-05-02T10:22:22;98634.14;;;20.07;41.22
56825;BME280;42705;50.326;18.772;2023-05-02T10:27:44;98632.34;;;20.16;41.07
56825;BME280;42705;50.326;18.772;2023-05-02T10:33:06;98635.38;;;20.22;40.84
56825;BME280;42705;50.326;18.772;2023-05-02T10:38:29;98645.17;;;20.24;40.89
56825;BME280;42705;50.326;18.772;2023-05-02T10:43:51;98650.23;;;20.18;40.77
56825;BME280;42705;50.326;18.772;2023-05-02T10:49:13;98644.23;;;20.15;40.93
56825;BME280;42705;50.326;18.772;2023-05-02T10:54:35;98651.40;;;20.15;40.84
56825;BME280;42705;50.326;18.772;2023-05-02T10:59:57;98645.05;;;20.15;40.91
56825;BME280;42705;50.326;18.772;2023-05-02T11:22:30;98666.56;;;19.80;41.30
56825;BME280;42705;50.326;18.772;2023-05-02T11:27:52;98678.20;;;19.45;41.63
56825;BME280;42705;50.326;18.772;2023-05-02T11:33:14;98673.77;;;19.22;42.04
56825;BME280;42705;50.326;18.772;2023-05-02T11:38:37;98687.68;;;19.16;42.50
56825;BME280;42705;50.326;18.772;2023-05-02T11:44:03;98690.77;;;19.06;42.25
56825;BME280;42705;50.326;18.772;2023-05-02T11:49:26;98689.41;;;19.08;42.40
56825;BME280;42705;50.326;18.772;2023-05-02T11:54:48;98697.24;;;19.15;42.77
56825;BME280;42705;50.326;18.772;2023-05-02T12:00:10;98705.98;;;19.12;43.04
56825;BME280;42705;50.326;18.772;2023-05-02T12:05:35;98704.74;;;18.99;43.07
56825;BME280;42705;50.326;18.772;2023-05-02T12:10:57;98708.55;;;18.90;43.24
56825;BME280;42705;50.326;18.772;2023-05-02T12:16:19;98706.41;;;18.85;43.62
56825;BME280;42705;50.326;18.772;2023-05-02T12:21:41;98711.12;;;18.70;44.01
56825;BME280;42705;50.326;18.772;2023-05-02T12:27:10;98716.95;;;18.63;44.23
56825;BME280;42705;50.326;18.772;2023-05-02T12:32:33;98712.23;;;18.76;44.39
56825;BME280;42705;50.326;18.772;2023-05-02T12:43:53;98724.17;;;18.89;44.49
56825;BME280;42705;50.326;18.772;2023-05-02T12:49:15;98729.95;;;18.98;44.15
56825;BME280;42705;50.326;18.772;2023-05-02T12:54:38;98734.63;;;18.93;43.46
56825;BME280;42705;50.326;18.772;2023-05-02T13:00:00;98729.46;;;18.80;43.14
56825;BME280;42705;50.326;18.772;2023-05-02T13:05:22;98727.27;;;18.70;42.27
56825;BME280;42705;50.326;18.772;2023-05-02T13:10:44;98727.13;;;18.85;41.92
56825;BME280;42705;50.326;18.772;2023-05-02T13:16:06;98730.48;;;19.24;41.73
56825;BME280;42705;50.326;18.772;2023-05-02T13:21:28;98727.14;;;19.87;41.02
56825;BME280;42705;50.326;18.772;2023-05-02T13:26:52;98724.17;;;20.28;40.81
56825;BME280;42705;50.326;18.772;2023-05-02T13:32:14;98725.17;;;20.40;40.80
56825;BME280;42705;50.326;18.772;2023-05-02T13:37:36;98722.68;;;20.40;40.18
56825;BME280;42705;50.326;18.772;2023-05-02T13:42:58;98728.13;;;20.59;38.94
56825;BME280;42705;50.326;18.772;2023-05-02T13:48:19;98728.77;;;21.29;37.74
56825;BME280;42705;50.326;18.772;2023-05-02T13:53:41;98741.52;;;22.13;36.92
56825;BME280;42705;50.326;18.772;2023-05-02T13:59:03;98737.65;;;22.94;35.92
56825;BME280;42705;50.326;18.772;2023-05-02T14:04:25;98744.50;;;23.43;35.03
56825;BME280;42705;50.326;18.772;2023-05-02T14:09:47;98742.96;;;23.31;34.60
56825;BME280;42705;50.326;18.772;2023-05-02T14:15:08;98741.20;;;22.72;34.56
56825;BME280;42705;50.326;18.772;2023-05-02T14:20:31;98740.06;;;21.99;34.70
56825;BME280;42705;50.326;18.772;2023-05-02T14:25:55;98737.54;;;21.49;35.16
56825;BME280;42705;50.326;18.772;2023-05-02T14:31:17;98743.98;;;21.07;35.42
56825;BME280;42705;50.326;18.772;2023-05-02T14:36:39;98749.10;;;20.61;35.76
56825;BME280;42705;50.326;18.772;2023-05-02T14:42:01;98760.30;;;20.09;36.01
56825;BME280;42705;50.326;18.772;2023-05-02T14:47:27;98770.28;;;19.59;36.51
56825;BME280;42705;50.326;18.772;2023-05-02T14:52:50;98771.93;;;19.05;37.06
56825;BME280;42705;50.326;18.772;2023-05-02T14:58:11;98782.59;;;18.57;37.61
56825;BME280;42705;50.326;18.772;2023-05-02T15:03:34;98787.89;;;18.20;37.99
56825;BME280;42705;50.326;18.772;2023-05-02T15:08:55;98789.99;;;17.86;38.57
56825;BME280;42705;50.326;18.772;2023-05-02T15:14:17;98802.54;;;17.58;39.04
56825;BME280;42705;50.326;18.772;2023-05-02T15:19:39;98802.02;;;17.32;39.39
56825;BME280;42705;50.326;18.772;2023-05-02T15:25:02;98807.27;;;17.08;39.85
56825;BME280;42705;50.326;18.772;2023-05-02T15:30:23;98813.77;;;16.81;40.25
56825;BME280;42705;50.326;18.772;2023-05-02T15:35:53;98819.13;;;16.60;40.72
56825;BME280;42705;50.326;18.772;2023-05-02T15:41:15;98832.49;;;16.41;41.17
56825;BME280;42705;50.326;18.772;2023-05-02T15:46:37;98842.70;;;16.24;41.71
56825;BME280;42705;50.326;18.772;2023-05-02T15:52:00;98851.54;;;16.08;42.39
56825;BME280;42705;50.326;18.772;2023-05-02T15:57:23;98859.46;;;15.93;42.56
56825;BME280;42705;50.326;18.772;2023-05-02T16:02:46;98871.77;;;15.83;42.95
56825;BME280;42705;50.326;18.772;2023-05-02T16:08:08;98876.32;;;15.71;43.53
56825;BME280;42705;50.326;18.772;2023-05-02T16:13:30;98867.27;;;15.62;43.84
56825;BME280;42705;50.326;18.772;2023-05-02T16:18:52;98844.55;;;15.55;44.27
56825;BME280;42705;50.326;18.772;2023-05-02T16:24:14;98836.25;;;15.42;44.74
56825;BME280;42705;50.326;18.772;2023-05-02T16:29:36;98847.77;;;15.24;45.32
56825;BME280;42705;50.326;18.772;2023-05-02T16:34:58;98853.06;;;15.08;45.80
56825;BME280;42705;50.326;18.772;2023-05-02T16:40:22;98855.61;;;14.96;46.21
56825;BME280;42705;50.326;18.772;2023-05-02T16:45:44;98858.64;;;14.87;46.88
56825;BME280;42705;50.326;18.772;2023-05-02T16:51:07;98869.39;;;14.80;47.00
56825;BME280;42705;50.326;18.772;2023-05-02T16:56:31;98882.09;;;14.74;47.65
56825;BME280;42705;50.326;18.772;2023-05-02T17:01:52;98895.65;;;14.68;48.21
56825;BME280;42705;50.326;18.772;2023-05-02T17:07:14;98901.88;;;14.55;48.77
56825;BME280;42705;50.326;18.772;2023-05-02T17:12:36;98904.27;;;14.48;49.36
56825;BME280;42705;50.326;18.772;2023-05-02T17:17:58;98907.23;;;14.47;50.03
56825;BME280;42705;50.326;18.772;2023-05-02T17:23:21;98903.21;;;14.47;50.07
56825;BME280;42705;50.326;18.772;2023-05-02T17:28:43;98881.66;;;14.45;49.94
56825;BME280;42705;50.326;18.772;2023-05-02T17:34:06;98862.11;;;14.34;50.53
56825;BME280;42705;50.326;18.772;2023-05-02T17:39:28;98853.63;;;14.14;51.05
56825;BME280;42705;50.326;18.772;2023-05-02T17:44:51;98869.96;;;13.94;51.82
56825;BME280;42705;50.326;18.772;2023-05-02T17:50:13;98882.16;;;13.84;52.59
56825;BME280;42705;50.326;18.772;2023-05-02T17:55:36;98901.73;;;13.81;53.04
56825;BME280;42705;50.326;18.772;2023-05-02T18:01:06;98927.04;;;13.46;53.75
56825;BME280;42705;50.326;18.772;2023-05-02T18:06:29;98929.47;;;13.16;54.32
56825;BME280;42705;50.326;18.772;2023-05-02T18:11:52;98936.48;;;13.18;54.09
56825;BME280;42705;50.326;18.772;2023-05-02T18:17:17;98943.64;;;13.29;54.65
56825;BME280;42705;50.326;18.772;2023-05-02T18:22:41;98960.48;;;13.41;55.53
56825;BME280;42705;50.326;18.772;2023-05-02T18:28:03;98967.38;;;13.42;55.72
56825;BME280;42705;50.326;18.772;2023-05-02T18:33:25;98980.66;;;13.29;56.12
56825;BME280;42705;50.326;18.772;2023-05-02T18:38:47;98990.45;;;13.20;56.42
56825;BME280;42705;50.326;18.772;2023-05-02T18:44:09;98996.92;;;13.11;56.82
56825;BME280;42705;50.326;18.772;2023-05-02T18:49:32;99005.27;;;13.21;57.40
56825;BME280;42705;50.326;18.772;2023-05-02T18:54:55;99005.29;;;13.30;57.65
56825;BME280;42705;50.326;18.772;2023-05-02T19:00:18;99010.58;;;13.32;57.52
56825;BME280;42705;50.326;18.772;2023-05-02T19:05:42;99021.42;;;13.38;57.73
56825;BME280;42705;50.326;18.772;2023-05-02T19:11:05;99032.42;;;13.37;57.59
56825;BME280;42705;50.326;18.772;2023-05-02T19:16:27;99041.05;;;13.31;57.72
56825;BME280;42705;50.326;18.772;2023-05-02T19:21:52;99036.84;;;13.27;57.82
56825;BME280;42705;50.326;18.772;2023-05-02T19:27:15;99035.58;;;13.16;58.11
56825;BME280;42705;50.326;18.772;2023-05-02T19:32:38;99032.85;;;13.09;58.20
56825;BME280;42705;50.326;18.772;2023-05-02T19:38:03;99030.95;;;13.01;58.24
56825;BME280;42705;50.326;18.772;2023-05-02T19:43:31;99030.02;;;12.90;58.00
56825;BME280;42705;50.326;18.772;2023-05-02T19:48:54;99026.71;;;12.84;58.46
56825;BME280;42705;50.326;18.772;2023-05-02T19:54:17;99026.77;;;12.83;59.01
56825;BME280;42705;50.326;18.772;2023-05-02T19:59:39;99031.17;;;12.83;59.14
56825;BME280;42705;50.326;18.772;2023-05-02T20:05:02;99032.20;;;12.82;59.30
56825;BME280;42705;50.326;18.772;2023-05-02T20:10:24;99037.34;;;12.87;59.43
56825;BME280;42705;50.326;18.772;2023-05-02T20:15:50;99045.80;;;12.92;59.25
56825;BME280;42705;50.326;18.772;2023-05-02T20:21:13;99042.35;;;12.96;59.26
56825;BME280;42705;50.326;18.772;2023-05-02T20:26:39;99049.20;;;12.93;59.56
56825;BME280;42705;50.326;18.772;2023-05-02T20:32:02;99055.96;;;12.90;60.08
56825;BME280;42705;50.326;18.772;2023-05-02T20:37:24;99059.29;;;12.82;60.45
56825;BME280;42705;50.326;18.772;2023-05-02T20:42:47;99065.69;;;12.76;60.92
56825;BME280;42705;50.326;18.772;2023-05-02T20:48:13;99064.67;;;12.78;61.57
56825;BME280;42705;50.326;18.772;2023-05-02T20:53:36;99066.75;;;12.78;61.83
56825;BME280;42705;50.326;18.772;2023-05-02T20:58:58;99070.52;;;12.73;62.19
56825;BME280;42705;50.326;18.772;2023-05-02T21:04:20;99070.09;;;12.74;62.45
56825;BME280;42705;50.326;18.772;2023-05-02T21:09:42;99077.27;;;12.76;62.30
56825;BME280;42705;50.326;18.772;2023-05-02T21:15:04;99083.09;;;12.73;62.68
56825;BME280;42705;50.326;18.772;2023-05-02T21:20:27;99088.02;;;12.69;62.79
56825;BME280;42705;50.326;18.772;2023-05-02T21:25:50;99088.52;;;12.63;62.75
56825;BME280;42705;50.326;18.772;2023-05-02T21:31:12;99093.02;;;12.66;62.75
56825;BME280;42705;50.326;18.772;2023-05-02T21:36:33;99092.86;;;12.68;62.85
56825;BME280;42705;50.326;18.772;2023-05-02T21:41:55;99098.26;;;12.66;62.40
56825;BME280;42705;50.326;18.772;2023-05-02T21:47:17;99098.25;;;12.60;62.54
56825;BME280;42705;50.326;18.772;2023-05-02T21:52:39;99104.17;;;12.56;62.58
56825;BME280;42705;50.326;18.772;2023-05-02T21:58:04;99105.31;;;12.56;62.51
56825;BME280;42705;50.326;18.772;2023-05-02T22:03:26;99109.30;;;12.66;62.31
56825;BME280;42705;50.326;18.772;2023-05-02T22:08:48;99107.94;;;12.77;62.54
56825;BME280;42705;50.326;18.772;2023-05-02T22:14:10;99115.26;;;12.88;62.55
56825;BME280;42705;50.326;18.772;2023-05-02T22:19:32;99115.12;;;12.89;61.99
56825;BME280;42705;50.326;18.772;2023-05-02T22:24:54;99118.35;;;12.88;62.07
56825;BME280;42705;50.326;18.772;2023-05-02T22:30:17;99119.20;;;12.85;62.00
56825;BME280;42705;50.326;18.772;2023-05-02T22:35:39;99118.30;;;12.79;62.14
56825;BME280;42705;50.326;18.772;2023-05-02T22:41:01;99118.58;;;12.80;62.18
56825;BME280;42705;50.326;18.772;2023-05-02T22:46:23;99119.60;;;12.86;62.23
56825;BME280;42705;50.326;18.772;2023-05-02T22:51:45;99123.84;;;12.90;62.61
56825;BME280;42705;50.326;18.772;2023-05-02T22:57:08;99128.83;;;12.89;62.54
56825;BME280;42705;50.326;18.772;2023-05-02T23:02:30;99129.80;;;12.92;62.91
56825;BME280;42705;50.326;18.772;2023-05-02T23:07:51;99132.31;;;12.92;62.95
56825;BME280;42705;50.326;18.772;2023-05-02T23:13:13;99130.77;;;12.89;62.68
56825;BME280;42705;50.326;18.772;2023-05-02T23:18:35;99124.23;;;12.92;62.87
56825;BME280;42705;50.326;18.772;2023-05-02T23:23:57;99125.00;;;12.97;62.97
56825;BME280;42705;50.326;18.772;2023-05-02T23:29:18;99124.83;;;13.00;62.91
56825;BME280;42705;50.326;18.772;2023-05-02T23:34:40;99119.02;;;12.99;62.96
56825;BME280;42705;50.326;18.772;2023-05-02T23:40:02;99121.17;;;12.98;63.16
56825;BME280;42705;50.326;18.772;2023-05-02T23:45:24;99126.35;;;12.97;63.19
56825;BME280;42705;50.326;18.772;2023-05-02T23:50:46;99121.95;;;13.03;63.35
56825;BME280;42705;50.326;18.772;2023-05-02T23:56:07;99115.48;;;13.13;63.45
